createdAt,value
2023-09-07T00:01:20.647Z,16.60
2023-09-07T00:03:47.684Z,16.60
2023-09-07T00:06:14.761Z,17.40
2023-09-07T00:08:41.689Z,16.60
2023-09-07T00:11:08.819Z,18.00
2023-09-07T00:13:35.859Z,17.80
2023-09-07T00:16:04.049Z,16.50
2023-09-07T00:18:32.181Z,16.50
2023-09-07T00:21:02.473Z,16.50
2023-09-07T00:23:30.383Z,16.50
2023-09-07T00:25:57.326Z,19.20
2023-09-07T00:28:24.394Z,18.10
2023-09-07T00:30:51.684Z,16.50
2023-09-07T00:33:18.597Z,16.60
2023-09-07T00:35:45.446Z,19.20
2023-09-07T00:38:13.064Z,17.40
2023-09-07T00:40:43.293Z,16.50
2023-09-07T00:43:10.757Z,16.70
2023-09-07T00:45:37.912Z,18.30
2023-09-07T00:48:05.444Z,16.40
2023-09-07T00:50:32.564Z,16.50
2023-09-07T00:53:01.172Z,17.20
2023-09-07T00:55:29.146Z,16.40
2023-09-07T00:57:56.414Z,16.40
2023-09-07T01:00:23.339Z,16.40
2023-09-07T01:02:50.361Z,16.40
2023-09-07T01:05:17.454Z,17.60
2023-09-07T01:07:46.743Z,16.30
2023-09-07T01:10:14.442Z,16.30
2023-09-07T01:12:41.862Z,16.30
2023-09-07T01:15:09.719Z,16.40
2023-09-07T01:17:36.841Z,16.30
2023-09-07T01:20:08.511Z,17.10
2023-09-07T01:22:35.475Z,16.30
2023-09-07T01:25:02.798Z,18.90
2023-09-07T01:27:30.080Z,17.20
2023-09-07T01:29:57.061Z,16.30
2023-09-07T01:32:23.973Z,16.40
2023-09-07T01:34:51.082Z,16.30
2023-09-07T01:37:18.058Z,16.40
2023-09-07T01:39:45.051Z,16.20
2023-09-07T01:42:12.001Z,16.20
2023-09-07T01:44:39.481Z,17.60
2023-09-07T01:47:06.581Z,16.40
2023-09-07T01:49:33.713Z,16.10
2023-09-07T01:52:00.744Z,17.50
2023-09-07T01:54:27.781Z,16.10
2023-09-07T01:56:55.021Z,18.80
2023-09-07T01:59:22.015Z,16.10
2023-09-07T02:01:48.987Z,16.10
2023-09-07T02:04:15.932Z,16.10
2023-09-07T02:06:42.895Z,16.10
2023-09-07T02:09:09.874Z,17.80
2023-09-07T02:11:37.591Z,16.10
2023-09-07T02:14:04.934Z,16.50
2023-09-07T02:16:32.004Z,16.30
2023-09-07T02:19:04.639Z,18.40
2023-09-07T02:21:31.726Z,16.10
2023-09-07T02:23:58.880Z,16.10
2023-09-07T02:26:25.952Z,17.00
2023-09-07T02:28:53.148Z,16.00
2023-09-07T02:31:21.058Z,17.30
2023-09-07T02:33:48.377Z,18.50
2023-09-07T02:36:15.342Z,16.00
2023-09-07T02:38:42.799Z,15.90
2023-09-07T02:41:09.994Z,16.30
2023-09-07T02:43:37.048Z,16.60
2023-09-07T02:46:04.059Z,15.90
2023-09-07T02:48:31.355Z,15.90
2023-09-07T02:50:59.842Z,15.80
2023-09-07T02:53:27.524Z,15.90
2023-09-07T02:55:54.527Z,16.00
2023-09-07T02:58:21.473Z,15.80
2023-09-07T03:00:48.647Z,17.50
2023-09-07T03:03:19.076Z,17.80
2023-09-07T03:05:47.308Z,15.80
2023-09-07T03:08:15.303Z,18.40
2023-09-07T03:10:43.049Z,17.60
2023-09-07T03:13:10.539Z,16.90
2023-09-07T03:15:39.246Z,15.80
2023-09-07T03:18:09.359Z,17.80
2023-09-07T03:20:37.721Z,16.20
2023-09-07T03:23:04.990Z,18.10
2023-09-07T03:25:32.561Z,15.20
2023-09-07T03:27:59.572Z,16.10
2023-09-07T03:30:26.855Z,15.70
2023-09-07T03:32:55.396Z,15.70
2023-09-07T03:35:22.463Z,17.80
2023-09-07T03:37:49.403Z,15.70
2023-09-07T03:40:16.374Z,16.50
2023-09-07T03:42:44.693Z,15.80
2023-09-07T03:45:12.832Z,17.50
2023-09-07T03:47:39.967Z,15.80
2023-09-07T03:50:07.929Z,15.70
2023-09-07T03:52:35.717Z,15.70
2023-09-07T03:55:04.601Z,15.70
2023-09-07T03:57:31.545Z,15.70
2023-09-07T03:59:58.611Z,17.90
2023-09-07T04:02:25.945Z,15.80
2023-09-07T04:04:54.929Z,15.70
2023-09-07T04:07:21.902Z,15.70
2023-09-07T04:09:48.794Z,16.90
2023-09-07T04:12:18.134Z,15.60
2023-09-07T04:14:46.015Z,15.60
2023-09-07T04:17:13.377Z,17.90
2023-09-07T04:19:41.000Z,16.40
2023-09-07T04:22:08.068Z,15.60
2023-09-07T04:24:35.138Z,15.60
2023-09-07T04:27:05.050Z,15.60
2023-09-07T04:29:34.125Z,15.60
2023-09-07T04:32:01.089Z,17.30
2023-09-07T04:34:28.076Z,15.60
2023-09-07T04:36:55.593Z,15.50
2023-09-07T04:39:22.623Z,15.50
2023-09-07T04:41:49.732Z,15.50
2023-09-07T04:44:16.940Z,16.00
2023-09-07T04:46:43.921Z,15.50
2023-09-07T04:49:12.064Z,15.50
2023-09-07T04:51:39.062Z,15.50
2023-09-07T04:54:07.349Z,15.50
2023-09-07T04:56:34.349Z,15.50
2023-09-07T04:59:01.358Z,15.50
2023-09-07T05:01:28.482Z,15.40
2023-09-07T05:03:56.909Z,15.40
2023-09-07T05:06:27.619Z,15.40
2023-09-07T05:08:54.730Z,15.40
2023-09-07T05:11:21.711Z,16.20
2023-09-07T05:13:49.561Z,15.40
2023-09-07T05:16:16.622Z,17.20
2023-09-07T05:18:44.166Z,17.50
2023-09-07T05:21:15.389Z,15.80
2023-09-07T05:23:43.061Z,15.40
2023-09-07T05:26:10.280Z,15.40
2023-09-07T05:28:37.309Z,15.40
2023-09-07T05:31:04.972Z,17.70
2023-09-07T05:33:33.665Z,18.10
2023-09-07T05:36:02.634Z,15.40
2023-09-07T05:38:32.148Z,17.70
2023-09-07T05:41:00.767Z,17.70
2023-09-07T05:43:27.889Z,15.50
2023-09-07T05:45:57.317Z,17.20
2023-09-07T05:48:24.521Z,15.70
2023-09-07T05:50:52.131Z,17.50
2023-09-07T05:53:21.056Z,15.50
2023-09-07T05:55:48.037Z,16.50
2023-09-07T05:58:16.084Z,17.60
2023-09-07T06:00:45.026Z,16.00
2023-09-07T06:03:12.617Z,15.60
2023-09-07T06:05:40.861Z,15.70
2023-09-07T06:08:10.005Z,17.40
2023-09-07T06:10:38.167Z,15.70
2023-09-07T06:13:06.299Z,15.70
2023-09-07T06:15:33.654Z,15.80
2023-09-07T06:18:00.838Z,15.90
2023-09-07T06:20:28.049Z,17.10
2023-09-07T06:22:57.440Z,17.60
2023-09-07T06:25:24.757Z,15.90
2023-09-07T06:27:52.367Z,15.90
2023-09-07T06:30:19.883Z,17.90
2023-09-07T06:32:48.836Z,16.10
2023-09-07T06:35:15.979Z,17.10
2023-09-07T06:37:44.513Z,18.00
2023-09-07T06:40:14.623Z,16.30
2023-09-07T06:42:42.915Z,16.40
2023-09-07T06:45:14.805Z,16.50
2023-09-07T06:47:44.767Z,16.60
2023-09-07T06:50:12.334Z,16.70
2023-09-07T06:52:39.634Z,17.20
2023-09-07T06:55:07.725Z,16.90
2023-09-07T06:57:35.160Z,17.00
2023-09-07T07:00:06.484Z,16.50
2023-09-07T07:02:34.124Z,17.30
2023-09-07T07:05:02.065Z,17.40
2023-09-07T07:07:30.348Z,17.60
2023-09-07T07:09:57.375Z,18.10
2023-09-07T07:12:24.633Z,17.80
2023-09-07T07:14:51.835Z,18.80
2023-09-07T07:17:18.812Z,18.10
2023-09-07T07:19:45.874Z,19.10
2023-09-07T07:22:14.017Z,18.40
2023-09-07T07:24:41.593Z,18.60
2023-09-07T07:27:08.961Z,18.70
2023-09-07T07:29:36.462Z,20.60
2023-09-07T07:32:04.899Z,19.00
2023-09-07T07:34:32.731Z,19.20
2023-09-07T07:36:59.984Z,19.30
2023-09-07T07:39:26.940Z,19.50
2023-09-07T07:41:54.222Z,19.60
2023-09-07T07:44:21.751Z,19.80
2023-09-07T07:46:51.020Z,19.90
2023-09-07T07:49:18.309Z,20.10
2023-09-07T07:51:45.272Z,20.20
2023-09-07T07:54:12.343Z,20.40
2023-09-07T07:56:40.652Z,20.50
2023-09-07T07:59:08.382Z,20.70
2023-09-07T08:01:39.025Z,20.80
2023-09-07T08:04:06.454Z,21.00
2023-09-07T08:06:34.882Z,21.20
2023-09-07T08:09:02.353Z,21.20
2023-09-07T08:11:30.117Z,21.40
2023-09-07T08:13:58.696Z,21.50
2023-09-07T08:16:26.039Z,21.60
2023-09-07T08:18:53.380Z,21.70
2023-09-07T08:21:21.528Z,21.80
2023-09-07T08:23:48.508Z,21.90
2023-09-07T08:26:17.083Z,22.00
2023-09-07T08:28:47.734Z,22.20
2023-09-07T08:31:22.248Z,22.30
2023-09-07T08:33:52.525Z,22.40
2023-09-07T08:36:23.270Z,22.50
2023-09-07T08:38:51.909Z,22.60
2023-09-07T08:41:18.809Z,22.70
2023-09-07T08:43:49.660Z,22.80
2023-09-07T08:46:23.427Z,22.90
2023-09-07T08:48:51.485Z,23.00
2023-09-07T08:51:19.402Z,23.20
2023-09-07T08:53:47.746Z,23.30
2023-09-07T08:56:15.375Z,23.40
2023-09-07T08:58:43.663Z,23.50
2023-09-07T09:01:10.777Z,23.60
2023-09-07T09:03:38.044Z,23.60
2023-09-07T09:06:06.483Z,25.80
2023-09-07T09:08:46.387Z,23.80
2023-09-07T09:11:13.669Z,23.80
2023-09-07T09:13:41.286Z,23.90
2023-09-07T09:16:08.274Z,24.00
2023-09-07T09:18:35.482Z,24.10
2023-09-07T09:21:02.796Z,24.20
2023-09-07T09:23:37.056Z,24.30
2023-09-07T09:26:05.954Z,24.40
2023-09-07T09:28:33.612Z,24.50
2023-09-07T09:31:01.677Z,24.60
2023-09-07T09:33:31.163Z,24.60
2023-09-07T09:35:58.120Z,24.80
2023-09-07T09:38:25.378Z,24.90
2023-09-07T09:40:52.948Z,25.00
2023-09-07T09:43:21.543Z,25.00
2023-09-07T09:45:48.757Z,25.10
2023-09-07T09:48:15.809Z,25.20
2023-09-07T09:50:43.094Z,25.30
2023-09-07T09:53:10.033Z,25.30
2023-09-07T09:55:37.162Z,25.40
2023-09-07T09:58:05.014Z,25.40
2023-09-07T10:00:32.485Z,25.50
2023-09-07T10:03:05.544Z,25.50
2023-09-07T10:05:32.605Z,25.60
2023-09-07T10:08:10.897Z,25.70
2023-09-07T10:10:38.232Z,25.70
2023-09-07T10:13:06.025Z,25.80
2023-09-07T10:15:34.025Z,25.90
2023-09-07T10:18:19.967Z,26.00
2023-09-07T10:20:56.687Z,26.00
2023-09-07T10:23:24.883Z,26.00
2023-09-07T10:25:56.178Z,26.10
2023-09-07T10:28:26.644Z,26.10
2023-09-07T10:31:14.505Z,26.10
2023-09-07T10:33:41.741Z,26.10
2023-09-07T10:36:08.872Z,26.10
2023-09-07T10:38:36.544Z,26.20
2023-09-07T10:41:05.405Z,26.20
2023-09-07T10:43:33.790Z,26.20
2023-09-07T10:46:01.749Z,26.30
2023-09-07T10:48:32.444Z,26.20
2023-09-07T10:50:59.572Z,26.30
2023-09-07T10:53:31.336Z,26.40
2023-09-07T10:56:07.861Z,26.40
2023-09-07T10:58:35.873Z,26.40
2023-09-07T11:01:04.857Z,26.40
2023-09-07T11:03:32.054Z,26.40
2023-09-07T11:06:11.220Z,26.40
2023-09-07T11:08:38.233Z,26.40
2023-09-07T11:11:05.285Z,26.40
2023-09-07T11:13:32.403Z,26.40
2023-09-07T11:16:00.017Z,26.50
2023-09-07T11:18:27.045Z,26.50
2023-09-07T11:20:54.343Z,26.50
2023-09-07T11:23:22.085Z,26.60
2023-09-07T11:25:52.506Z,26.60
2023-09-07T11:28:20.314Z,26.60
2023-09-07T11:30:54.699Z,26.70
2023-09-07T11:33:22.704Z,26.70
2023-09-07T11:35:49.866Z,26.70
2023-09-07T11:38:17.618Z,26.80
2023-09-07T11:40:48.073Z,26.80
2023-09-07T11:43:20.359Z,26.80
2023-09-07T11:45:47.653Z,26.70
2023-09-07T11:48:14.849Z,26.80
2023-09-07T11:50:41.930Z,26.80
2023-09-07T11:53:09.085Z,26.80
2023-09-07T11:55:36.623Z,26.80
2023-09-07T11:58:04.583Z,26.80
2023-09-07T12:00:32.844Z,26.90
2023-09-07T12:03:00.376Z,26.90
2023-09-07T12:05:27.689Z,27.00
2023-09-07T12:07:55.155Z,27.00
2023-09-07T12:10:22.495Z,27.00
2023-09-07T12:12:49.567Z,27.00
2023-09-07T12:15:16.513Z,27.10
2023-09-07T12:17:43.574Z,27.20
2023-09-07T12:20:12.118Z,27.30
2023-09-07T12:22:39.367Z,27.40
2023-09-07T12:25:19.855Z,27.40
2023-09-07T12:30:21.462Z,27.50
2023-09-07T12:32:48.802Z,27.60
2023-09-07T12:35:16.350Z,27.60
2023-09-07T12:37:43.654Z,27.60
2023-09-07T12:40:13.587Z,27.70
2023-09-07T12:42:42.231Z,27.70
2023-09-07T12:45:13.450Z,27.70
2023-09-07T12:47:41.084Z,27.70
2023-09-07T12:50:09.434Z,27.70
2023-09-07T12:52:40.769Z,27.70
2023-09-07T12:55:08.635Z,27.70
2023-09-07T12:57:37.147Z,27.60
2023-09-07T13:00:05.718Z,27.60
2023-09-07T13:02:33.242Z,27.70
2023-09-07T13:05:00.357Z,27.70
2023-09-07T13:07:27.270Z,27.80
2023-09-07T13:09:55.803Z,27.80
2023-09-07T13:12:22.852Z,27.90
2023-09-07T13:14:49.838Z,27.90
2023-09-07T13:17:16.784Z,28.00
2023-09-07T13:19:43.805Z,28.00
2023-09-07T13:22:10.782Z,28.00
2023-09-07T13:24:37.897Z,28.00
2023-09-07T13:27:05.139Z,28.00
2023-09-07T13:29:35.190Z,28.10
2023-09-07T13:32:02.195Z,28.10
2023-09-07T13:34:29.126Z,28.10
2023-09-07T13:36:56.302Z,28.20
2023-09-07T13:39:24.444Z,28.20
2023-09-07T13:41:51.416Z,28.30
2023-09-07T13:44:18.433Z,28.30
2023-09-07T13:46:45.742Z,28.30
2023-09-07T13:49:13.598Z,28.30
2023-09-07T13:51:43.892Z,28.40
2023-09-07T13:54:10.987Z,28.40
2023-09-07T13:56:38.154Z,27.60
2023-09-07T13:59:05.805Z,28.50
2023-09-07T14:01:33.332Z,28.50
2023-09-07T14:04:00.925Z,28.50
2023-09-07T14:06:27.963Z,28.50
2023-09-07T14:08:54.895Z,28.60
2023-09-07T14:11:21.913Z,28.60
2023-09-07T14:13:50.903Z,28.60
2023-09-07T14:16:20.196Z,28.70
2023-09-07T14:18:47.177Z,28.60
2023-09-07T14:21:17.803Z,28.60
2023-09-07T14:23:45.368Z,28.70
2023-09-07T14:26:12.543Z,28.80
2023-09-07T14:28:40.815Z,28.80
2023-09-07T14:31:08.804Z,28.80
2023-09-07T14:33:39.777Z,28.90
2023-09-07T14:36:07.790Z,29.00
2023-09-07T14:38:41.192Z,29.20
2023-09-07T14:41:12.394Z,29.50
2023-09-07T14:43:39.287Z,30.00
2023-09-07T14:46:06.330Z,30.30
2023-09-07T14:48:33.317Z,30.60
2023-09-07T14:51:00.234Z,31.00
2023-09-07T14:53:27.436Z,31.20
2023-09-07T14:55:54.454Z,31.50
2023-09-07T14:58:21.515Z,31.80
2023-09-07T15:00:48.402Z,32.00
2023-09-07T15:03:15.365Z,32.10
2023-09-07T15:05:42.360Z,32.30
2023-09-07T15:08:09.434Z,32.50
2023-09-07T15:10:36.441Z,32.70
2023-09-07T15:13:08.024Z,32.90
2023-09-07T15:15:37.989Z,33.00
2023-09-07T15:18:05.368Z,33.20
2023-09-07T15:20:32.626Z,33.40
2023-09-07T15:22:59.590Z,33.70
2023-09-07T15:25:27.364Z,34.00
2023-09-07T15:27:57.455Z,34.10
2023-09-07T15:30:40.366Z,34.30
2023-09-07T15:33:07.351Z,34.30
2023-09-07T15:35:34.332Z,34.30
2023-09-07T15:38:01.717Z,34.40
2023-09-07T15:40:29.185Z,34.40
2023-09-07T15:42:56.091Z,34.40
2023-09-07T15:45:23.003Z,34.40
2023-09-07T15:47:50.052Z,34.30
2023-09-07T15:50:17.158Z,34.30
2023-09-07T15:52:48.124Z,34.40
2023-09-07T15:55:15.884Z,34.50
2023-09-07T15:57:42.799Z,34.50
2023-09-07T16:00:10.255Z,34.60
2023-09-07T16:02:39.893Z,34.60
2023-09-07T16:05:07.298Z,34.60
2023-09-07T16:07:34.579Z,34.50
2023-09-07T16:10:01.481Z,34.30
2023-09-07T16:12:28.385Z,33.90
2023-09-07T16:14:55.332Z,33.60
2023-09-07T16:17:22.223Z,33.50
2023-09-07T16:19:50.339Z,33.60
2023-09-07T16:22:17.262Z,33.60
2023-09-07T16:24:44.225Z,33.60
2023-09-07T16:27:11.204Z,33.50
2023-09-07T16:29:38.237Z,33.30
2023-09-07T16:32:05.590Z,33.00
2023-09-07T16:34:33.746Z,32.90
2023-09-07T16:37:00.669Z,32.60
2023-09-07T16:39:27.592Z,32.30
2023-09-07T16:41:54.501Z,32.00
2023-09-07T16:44:22.006Z,31.60
2023-09-07T16:46:48.978Z,31.40
2023-09-07T16:49:15.945Z,31.10
2023-09-07T16:51:44.430Z,30.90
2023-09-07T16:54:13.732Z,28.70
2023-09-07T16:56:41.900Z,30.40
2023-09-07T16:59:36.007Z,29.80
2023-09-07T17:01:56.304Z,29.20
2023-09-07T17:04:31.565Z,28.50
2023-09-07T17:07:08.169Z,27.80
2023-09-07T17:09:36.434Z,27.20
2023-09-07T17:12:03.670Z,26.70
2023-09-07T17:14:30.823Z,26.20
2023-09-07T17:16:58.029Z,25.80
2023-09-07T17:19:28.066Z,25.30
2023-09-07T17:21:55.616Z,25.00
2023-09-07T17:24:22.681Z,24.70
2023-09-07T17:26:49.755Z,24.40
2023-09-07T17:29:16.816Z,24.10
2023-09-07T17:31:43.829Z,23.80
2023-09-07T17:34:10.882Z,23.60
2023-09-07T17:36:37.797Z,23.40
2023-09-07T17:39:06.101Z,23.30
2023-09-07T17:41:34.856Z,23.10
2023-09-07T17:44:02.482Z,22.90
2023-09-07T17:46:31.389Z,22.80
2023-09-07T17:49:08.191Z,22.70
2023-09-07T17:51:39.292Z,22.60
2023-09-07T17:54:06.322Z,22.50
2023-09-07T17:56:33.267Z,22.40
2023-09-07T17:59:00.209Z,22.30
2023-09-07T18:01:27.294Z,22.20
2023-09-07T18:03:54.449Z,22.10
2023-09-07T18:06:21.409Z,22.00
2023-09-07T18:08:48.677Z,21.90
2023-09-07T18:11:19.769Z,21.80
2023-09-07T18:13:49.507Z,21.70
2023-09-07T18:16:18.990Z,21.60
2023-09-07T18:18:45.975Z,21.50
2023-09-07T18:21:13.010Z,21.40
2023-09-07T18:23:40.048Z,21.40
2023-09-07T18:26:14.743Z,21.30
2023-09-07T18:28:45.053Z,21.20
2023-09-07T18:31:12.238Z,21.10
2023-09-07T18:33:39.353Z,21.10
2023-09-07T18:36:07.648Z,21.00
2023-09-07T18:38:34.983Z,20.90
2023-09-07T18:41:02.841Z,20.90
2023-09-07T18:43:30.259Z,20.80
2023-09-07T18:45:58.272Z,20.70
2023-09-07T18:48:25.276Z,20.70
2023-09-07T18:51:04.162Z,20.60
2023-09-07T18:53:34.099Z,20.60
2023-09-07T18:56:04.790Z,20.50
2023-09-07T18:58:32.454Z,20.50
2023-09-07T19:01:00.025Z,20.40
2023-09-07T19:03:27.146Z,20.40
2023-09-07T19:05:54.397Z,20.30
2023-09-07T19:08:23.373Z,20.30
2023-09-07T19:10:50.453Z,20.30
2023-09-07T19:13:17.496Z,20.20
2023-09-07T19:15:45.532Z,20.20
2023-09-07T19:18:12.765Z,20.20
2023-09-07T19:20:39.989Z,20.10
2023-09-07T19:23:07.042Z,20.10
2023-09-07T19:25:34.499Z,20.10
2023-09-07T19:28:01.500Z,20.10
2023-09-07T19:30:29.458Z,20.00
2023-09-07T19:32:56.823Z,20.10
2023-09-07T19:35:24.519Z,20.10
2023-09-07T19:37:51.550Z,20.00
2023-09-07T19:40:29.940Z,20.00
2023-09-07T19:43:00.056Z,20.10
2023-09-07T19:45:27.009Z,20.00
2023-09-07T19:47:53.958Z,20.00
2023-09-07T19:50:22.957Z,19.90
2023-09-07T19:52:50.292Z,21.40
2023-09-07T19:55:17.280Z,19.90
2023-09-07T19:57:44.294Z,19.80
2023-09-07T20:00:11.967Z,19.80
2023-09-07T20:02:41.162Z,19.80
2023-09-07T20:05:08.578Z,19.80
2023-09-07T20:07:40.350Z,19.80
2023-09-07T20:10:08.762Z,20.50
2023-09-07T20:12:37.358Z,19.70
2023-09-07T20:15:05.031Z,19.70
2023-09-07T20:17:35.616Z,19.70
2023-09-07T20:20:05.241Z,19.60
2023-09-07T20:22:32.322Z,19.60
2023-09-07T20:24:59.308Z,19.60
2023-09-07T20:27:27.531Z,19.60
2023-09-07T20:29:54.484Z,19.60
2023-09-07T20:32:21.541Z,19.60
2023-09-07T20:34:48.614Z,19.60
2023-09-07T20:37:15.568Z,19.60
2023-09-07T20:39:42.549Z,19.60
2023-09-07T20:42:10.063Z,19.50
2023-09-07T20:44:37.713Z,19.50
2023-09-07T20:47:04.822Z,19.40
2023-09-07T20:49:31.956Z,20.20
2023-09-07T20:51:59.492Z,19.30
2023-09-07T20:54:26.561Z,19.30
2023-09-07T20:56:53.482Z,19.30
2023-09-07T20:59:20.400Z,19.30
2023-09-07T21:01:49.696Z,19.20
2023-09-07T21:04:17.107Z,17.90
2023-09-07T21:06:46.696Z,19.20
2023-09-07T21:09:16.673Z,19.20
2023-09-07T21:11:45.807Z,19.10
2023-09-07T21:14:12.966Z,19.10
2023-09-07T21:16:39.960Z,19.10
2023-09-07T21:19:10.449Z,19.10
2023-09-07T21:21:37.801Z,19.10
2023-09-07T21:24:05.035Z,19.10
2023-09-07T21:26:35.233Z,19.10
2023-09-07T21:29:02.864Z,19.00
2023-09-07T21:31:30.139Z,19.00
2023-09-07T21:33:57.137Z,19.00
2023-09-07T21:36:24.463Z,18.90
2023-09-07T21:38:51.491Z,18.90
2023-09-07T21:41:19.205Z,18.90
2023-09-07T21:43:46.163Z,18.80
2023-09-07T21:46:13.176Z,18.90
2023-09-07T21:48:40.188Z,18.90
2023-09-07T21:51:08.365Z,18.80
2023-09-07T21:53:38.655Z,18.80
2023-09-07T21:56:05.652Z,18.80
2023-09-07T21:58:32.821Z,18.80
2023-09-07T22:01:00.048Z,18.80
2023-09-07T22:03:27.067Z,18.70
2023-09-07T22:05:55.283Z,18.70
2023-09-07T22:08:22.356Z,18.70
2023-09-07T22:10:49.343Z,18.60
2023-09-07T22:13:16.267Z,18.60
2023-09-07T22:15:43.240Z,18.60
2023-09-07T22:18:10.804Z,18.60
2023-09-07T22:20:38.084Z,18.60
2023-09-07T22:23:05.903Z,18.60
2023-09-07T22:25:33.409Z,18.60
2023-09-07T22:28:00.366Z,18.60
2023-09-07T22:30:27.399Z,18.50
2023-09-07T22:32:54.423Z,18.50
2023-09-07T22:35:21.562Z,18.50
2023-09-07T22:37:48.637Z,18.40
2023-09-07T22:40:18.407Z,18.40
2023-09-07T22:42:46.035Z,18.40
2023-09-07T22:45:13.452Z,18.40
2023-09-07T22:47:40.995Z,18.30
2023-09-07T22:50:08.553Z,18.60
2023-09-07T22:52:35.867Z,18.30
2023-09-07T22:55:06.863Z,18.30
2023-09-07T22:57:34.388Z,18.20
2023-09-07T23:00:01.425Z,18.20
2023-09-07T23:02:28.528Z,18.20
2023-09-07T23:04:55.777Z,18.20
2023-09-07T23:07:22.969Z,18.20
2023-09-07T23:09:50.313Z,18.10
2023-09-07T23:12:17.373Z,18.10
2023-09-07T23:14:44.364Z,18.10
2023-09-07T23:17:11.317Z,18.10
2023-09-07T23:19:38.472Z,18.00
2023-09-07T23:22:05.535Z,18.00
2023-09-07T23:24:32.952Z,18.00
2023-09-07T23:26:59.931Z,20.00
2023-09-07T23:29:26.946Z,18.00
2023-09-07T23:31:53.963Z,18.00
2023-09-07T23:34:21.132Z,18.00
2023-09-07T23:36:48.129Z,18.00
2023-09-07T23:39:15.078Z,18.00
2023-09-07T23:41:42.005Z,17.90
2023-09-07T23:44:09.068Z,17.90
2023-09-07T23:46:36.038Z,17.90
2023-09-07T23:49:03.054Z,17.90
2023-09-07T23:51:29.961Z,17.90
2023-09-07T23:53:56.945Z,18.90
2023-09-07T23:56:23.850Z,17.80
2023-09-07T23:58:50.748Z,17.90
